createdAt,value
2019-03-30T00:00:50.824Z,3.97
2019-03-30T00:06:15.618Z,3.96
2019-03-30T00:11:40.612Z,3.84
2019-03-30T00:17:05.411Z,3.88
2019-03-30T00:22:29.833Z,3.72
2019-03-30T00:27:54.062Z,3.45
2019-03-30T00:33:18.235Z,3.38
2019-03-30T00:38:43.127Z,3.36
2019-03-30T00:44:07.705Z,3.28
2019-03-30T00:49:32.829Z,3.33
2019-03-30T00:54:57.728Z,3.18
2019-03-30T01:00:23.366Z,3.05
2019-03-30T01:05:47.549Z,3.01
2019-03-30T01:11:12.522Z,3.00
2019-03-30T01:16:37.541Z,3.08
2019-03-30T01:22:02.133Z,2.94
2019-03-30T01:27:26.601Z,2.89
2019-03-30T01:32:51.532Z,2.75
2019-03-30T01:38:17.847Z,2.74
2019-03-30T01:43:41.965Z,2.64
2019-03-30T01:49:07.254Z,2.49
2019-03-30T01:54:31.905Z,2.42
2019-03-30T01:59:57.237Z,2.48
2019-03-30T02:05:22.093Z,2.41
2019-03-30T02:10:47.507Z,2.42
2019-03-30T02:16:13.036Z,2.40
2019-03-30T02:21:38.059Z,2.22
2019-03-30T02:27:02.931Z,2.12
2019-03-30T02:32:28.088Z,2.06
2019-03-30T02:37:52.839Z,2.06
2019-03-30T02:43:17.480Z,2.19
2019-03-30T02:48:41.654Z,2.00
2019-03-30T02:54:06.609Z,1.91
2019-03-30T02:59:31.497Z,1.84
2019-03-30T03:04:56.969Z,1.75
2019-03-30T03:10:22.273Z,1.64
2019-03-30T03:15:47.049Z,1.70
2019-03-30T03:21:12.043Z,1.84
2019-03-30T03:26:37.270Z,1.71
2019-03-30T03:32:02.340Z,1.52
2019-03-30T03:37:43.416Z,1.45
2019-03-30T03:42:53.721Z,1.49
2019-03-30T03:48:18.331Z,1.43
2019-03-30T03:53:43.560Z,1.61
2019-03-30T03:59:08.173Z,1.85
2019-03-30T04:04:36.105Z,1.99
2019-03-30T04:10:03.525Z,1.94
2019-03-30T04:15:28.780Z,1.94
2019-03-30T04:20:53.741Z,1.69
2019-03-30T04:26:18.666Z,1.70
2019-03-30T04:31:43.855Z,1.57
2019-03-30T04:37:08.249Z,1.43
2019-03-30T04:42:33.765Z,1.41
2019-03-30T04:47:59.230Z,1.30
2019-03-30T04:53:24.179Z,1.18
2019-03-30T04:58:48.618Z,1.31
2019-03-30T05:04:13.167Z,1.34
2019-03-30T05:09:38.766Z,1.41
2019-03-30T05:15:04.091Z,1.37
2019-03-30T05:20:28.891Z,1.46
2019-03-30T05:25:53.658Z,1.73
2019-03-30T05:31:19.006Z,2.07
2019-03-30T05:36:43.406Z,2.50
2019-03-30T05:42:07.530Z,3.03
2019-03-30T05:47:31.766Z,3.40
2019-03-30T05:52:56.412Z,3.35
2019-03-30T05:58:20.676Z,3.81
2019-03-30T06:03:45.320Z,4.22
2019-03-30T06:09:09.544Z,4.98
2019-03-30T06:14:33.772Z,5.12
2019-03-30T06:19:58.130Z,5.59
2019-03-30T06:25:22.678Z,6.06
2019-03-30T06:30:46.919Z,7.30
2019-03-30T06:36:12.374Z,8.29
2019-03-30T06:41:37.053Z,8.43
2019-03-30T06:47:01.546Z,7.56
2019-03-30T06:52:25.824Z,7.97
2019-03-30T06:57:51.064Z,8.86
2019-03-30T07:03:16.672Z,9.98
2019-03-30T07:08:44.481Z,10.45
2019-03-30T07:14:11.758Z,10.73
2019-03-30T07:19:39.607Z,11.52
2019-03-30T07:25:04.930Z,11.41
2019-03-30T07:30:31.573Z,11.42
2019-03-30T07:35:57.997Z,11.28
2019-03-30T07:41:22.340Z,12.88
2019-03-30T07:46:46.441Z,12.55
2019-03-30T07:52:11.617Z,12.10
2019-03-30T07:57:36.945Z,13.11
2019-03-30T08:03:02.423Z,13.52
2019-03-30T08:08:26.980Z,13.90
2019-03-30T08:13:51.167Z,15.41
2019-03-30T08:19:16.135Z,14.70
2019-03-30T08:24:41.494Z,15.32
2019-03-30T08:30:06.654Z,16.00
2019-03-30T08:35:31.010Z,15.25
2019-03-30T08:40:56.289Z,16.02
2019-03-30T08:46:21.704Z,16.16
2019-03-30T08:51:46.534Z,16.77
2019-03-30T08:57:11.840Z,17.50
2019-03-30T09:02:36.962Z,17.83
2019-03-30T09:08:02.144Z,16.82
2019-03-30T09:13:27.392Z,16.39
2019-03-30T09:18:52.433Z,16.34
2019-03-30T09:24:18.363Z,17.00
2019-03-30T09:29:42.783Z,16.90
2019-03-30T09:35:08.510Z,16.83
2019-03-30T09:40:33.018Z,16.56
2019-03-30T09:45:58.218Z,16.50
2019-03-30T09:51:23.151Z,17.95
2019-03-30T09:56:47.227Z,16.94
2019-03-30T10:02:11.918Z,17.04
2019-03-30T10:07:36.068Z,18.10
2019-03-30T10:13:00.506Z,17.54
2019-03-30T10:18:25.496Z,17.49
2019-03-30T10:23:49.422Z,18.48
2019-03-30T10:29:14.989Z,18.87
2019-03-30T10:34:39.941Z,19.97
2019-03-30T10:40:06.152Z,19.87
2019-03-30T10:45:31.212Z,20.07
2019-03-30T10:50:55.419Z,19.24
2019-03-30T10:56:19.778Z,18.54
2019-03-30T11:01:43.956Z,20.01
2019-03-30T11:07:08.418Z,19.26
2019-03-30T11:12:32.788Z,19.30
2019-03-30T11:17:57.763Z,19.95
2019-03-30T11:23:22.094Z,20.11
2019-03-30T11:28:46.704Z,18.48
2019-03-30T11:34:11.377Z,19.42
2019-03-30T11:39:35.573Z,20.48
2019-03-30T11:44:59.898Z,18.83
2019-03-30T11:50:25.001Z,20.97
2019-03-30T11:55:49.415Z,20.62
2019-03-30T12:01:14.426Z,20.02
2019-03-30T12:06:40.566Z,20.19
2019-03-30T12:12:05.495Z,20.33
2019-03-30T12:17:30.744Z,21.64
2019-03-30T12:22:55.905Z,21.77
2019-03-30T12:28:21.881Z,20.73
2019-03-30T12:33:47.129Z,21.88
2019-03-30T12:39:12.455Z,19.98
2019-03-30T12:44:37.553Z,19.94
2019-03-30T12:50:02.092Z,21.33
2019-03-30T12:55:27.091Z,20.97
2019-03-30T13:00:51.370Z,20.93
2019-03-30T13:06:16.361Z,20.93
2019-03-30T13:11:40.785Z,20.36
2019-03-30T13:17:06.065Z,21.08
2019-03-30T13:22:30.946Z,21.17
2019-03-30T13:27:56.298Z,20.72
2019-03-30T13:33:21.222Z,20.70
2019-03-30T13:38:45.417Z,20.32
2019-03-30T13:44:11.381Z,21.02
2019-03-30T13:49:36.640Z,21.09
2019-03-30T13:55:01.293Z,20.92
2019-03-30T14:00:26.586Z,22.07
2019-03-30T14:05:50.683Z,21.17
2019-03-30T14:11:15.987Z,21.37
2019-03-30T14:16:40.372Z,21.55
2019-03-30T14:22:04.917Z,20.76
2019-03-30T14:27:29.113Z,20.84
2019-03-30T14:32:54.229Z,21.53
2019-03-30T14:38:19.060Z,20.53
2019-03-30T14:43:44.149Z,21.25
2019-03-30T14:49:09.376Z,21.99
2019-03-30T14:54:34.592Z,22.17
2019-03-30T14:59:59.359Z,22.07
2019-03-30T15:05:23.819Z,21.81
2019-03-30T15:10:48.171Z,21.07
2019-03-30T15:16:13.117Z,21.28
2019-03-30T15:21:38.345Z,20.48
2019-03-30T15:27:03.579Z,20.20
2019-03-30T15:32:28.306Z,20.17
2019-03-30T15:37:53.431Z,19.53
2019-03-30T15:43:17.730Z,19.94
2019-03-30T15:48:42.199Z,19.87
2019-03-30T15:54:07.039Z,19.57
2019-03-30T15:59:31.318Z,19.48
2019-03-30T16:04:56.598Z,19.48
2019-03-30T16:10:21.058Z,18.99
2019-03-30T16:15:46.152Z,18.75
2019-03-30T16:21:11.460Z,18.83
2019-03-30T16:26:42.199Z,18.44
2019-03-30T16:32:01.651Z,17.96
2019-03-30T16:37:26.648Z,17.64
2019-03-30T16:42:50.926Z,17.74
2019-03-30T16:48:16.197Z,17.63
2019-03-30T16:53:41.310Z,17.26
2019-03-30T16:59:05.633Z,16.90
2019-03-30T17:04:30.343Z,16.72
2019-03-30T17:09:55.220Z,16.61
2019-03-30T17:15:20.647Z,16.35
2019-03-30T17:20:45.549Z,16.00
2019-03-30T17:26:10.856Z,15.79
2019-03-30T17:31:36.005Z,15.47
2019-03-30T17:37:00.974Z,15.29
2019-03-30T17:42:27.029Z,14.79
2019-03-30T17:47:51.926Z,14.64
2019-03-30T17:53:16.927Z,14.40
2019-03-30T17:58:42.158Z,14.50
2019-03-30T18:04:07.283Z,14.30
2019-03-30T18:09:31.912Z,13.86
2019-03-30T18:14:56.004Z,13.64
2019-03-30T18:20:20.908Z,13.45
2019-03-30T18:25:45.866Z,13.32
2019-03-30T18:31:10.594Z,12.90
2019-03-30T18:36:36.938Z,12.93
2019-03-30T18:42:01.391Z,13.01
2019-03-30T18:47:26.042Z,12.99
2019-03-30T18:52:51.170Z,12.86
2019-03-30T18:58:16.025Z,13.09
2019-03-30T19:03:41.510Z,13.10
2019-03-30T19:09:07.801Z,13.04
2019-03-30T19:14:32.279Z,12.77
2019-03-30T19:19:56.442Z,12.34
2019-03-30T19:25:20.825Z,12.10
2019-03-30T19:30:45.074Z,11.85
2019-03-30T19:36:10.189Z,11.59
2019-03-30T19:41:34.156Z,11.41
2019-03-30T19:46:59.164Z,11.20
2019-03-30T19:52:38.987Z,11.03
2019-03-30T19:57:51.061Z,10.89
2019-03-30T20:03:16.431Z,10.73
2019-03-30T20:08:40.829Z,10.38
2019-03-30T20:14:05.134Z,10.12
2019-03-30T20:19:30.162Z,10.07
2019-03-30T20:24:54.955Z,9.80
2019-03-30T20:30:20.471Z,9.44
2019-03-30T20:35:45.723Z,9.40
2019-03-30T20:41:10.351Z,9.70
2019-03-30T20:46:34.973Z,9.94
2019-03-30T20:51:59.323Z,10.16
2019-03-30T20:57:23.761Z,10.30
2019-03-30T21:02:48.164Z,10.13
2019-03-30T21:08:12.630Z,9.64
2019-03-30T21:13:37.954Z,9.43
2019-03-30T21:19:02.443Z,9.09
2019-03-30T21:24:26.705Z,8.79
2019-03-30T21:29:54.976Z,8.52
2019-03-30T21:35:17.729Z,8.36
2019-03-30T21:40:43.155Z,8.28
2019-03-30T21:46:07.558Z,8.22
2019-03-30T21:51:32.357Z,8.16
2019-03-30T21:56:57.254Z,8.08
2019-03-30T22:02:21.740Z,8.04
2019-03-30T22:07:47.177Z,7.79
2019-03-30T22:13:12.039Z,7.70
2019-03-30T22:18:37.141Z,7.66
2019-03-30T22:24:01.549Z,7.68
2019-03-30T22:29:26.532Z,7.63
2019-03-30T22:34:51.023Z,7.79
2019-03-30T22:40:16.493Z,7.59
2019-03-30T22:45:41.702Z,7.55
2019-03-30T22:51:06.007Z,7.64
2019-03-30T22:56:31.656Z,7.55
2019-03-30T23:01:58.210Z,7.58
2019-03-30T23:07:23.092Z,7.68
2019-03-30T23:12:48.262Z,7.75
2019-03-30T23:18:12.441Z,7.56
2019-03-30T23:23:36.544Z,7.16
2019-03-30T23:29:01.912Z,7.07
2019-03-30T23:34:26.522Z,7.08
2019-03-30T23:39:51.683Z,7.33
2019-03-30T23:45:15.790Z,7.33
2019-03-30T23:50:41.119Z,7.34
2019-03-30T23:56:20.466Z,7.40
